Time;durP1;ratioP1;P1;durP2;ratioP2;P2;SDS_P1;SDS_P2;PMS_P1;PMS_P2;Temp;Humidity;BMP_temperature;BMP_pressure;BME280_temperature;BME280_humidity;BME280_pressure;Samples;Min_cycle;Max_cycle;Signal;HPM_P1;HPM_P2
2020/12/28 00:00:49;;;;;;;;;;;;;;;-0.97;100.00;89867.03;1061040;56;20659;-83
2020/12/28 00:01:50;;;;;;;;;;;;;;;-0.99;100.00;89869.34;1060991;56;20248;-82
2020/12/28 00:02:50;;;;;;;;;;;;;;;-0.97;100.00;89856.53;1063310;56;20716;-82
2020/12/28 00:03:51;;;;;;;;;;;;;;;-1.02;100.00;89870.91;1065311;55;20172;-83
2020/12/28 00:04:51;;;;;;;;;;;;;;;-1.01;100.00;89859.28;1065317;55;20693;-82
2020/12/28 00:05:53;;;;;;;;;;;;;;;-0.99;100.00;89858.84;1061044;56;20169;-83
2020/12/28 00:06:54;;;;;;;;;;;;;;;-1.02;100.00;89863.06;1063227;55;20158;-83
2020/12/28 00:07:54;;;;;;;;;;;;;;;-0.97;100.00;89857.25;1065318;55;20157;-82
2020/12/28 00:08:55;;;;;;;;;;;;;;;-0.98;100.00;89860.31;1060967;56;20162;-84
2020/12/28 00:09:55;;;;;;;;;;;;;;;-0.97;100.00;89854.66;1061059;56;20659;-82
2020/12/28 00:10:55;;;;;;;;;;;;;;;-1.03;100.00;89853.72;1063254;56;20207;-83
2020/12/28 00:11:57;;;;;;;;;;;;;;;-1.03;100.00;89857.06;1063169;56;20565;-83
2020/12/28 00:12:59;;;;;;;;;;;;;;;-1.02;100.00;89860.44;1061115;56;20170;-83
2020/12/28 00:13:59;;;;;;;;;;;;;;;-0.92;100.00;89856.00;1061171;55;20615;-82
2020/12/28 00:15:00;;;;;;;;;;;;;;;-0.88;100.00;89862.63;1065441;55;20165;-83
2020/12/28 00:16:00;;;;;;;;;;;;;;;-0.94;100.00;89856.44;1068205;55;20149;-82
2020/12/28 00:17:01;;;;;;;;;;;;;;;-0.95;100.00;89849.72;1065518;55;21168;-83
2020/12/28 00:18:03;;;;;;;;;;;;;;;-0.89;100.00;89844.66;1063462;55;20700;-82
2020/12/28 00:19:07;;;;;;;;;;;;;;;-0.93;100.00;89846.66;1061629;56;20185;-83
2020/12/28 00:20:08;;;;;;;;;;;;;;;-0.94;100.00;89851.19;1063705;55;20158;-84
2020/12/28 00:21:11;;;;;;;;;;;;;;;-0.94;100.00;89853.06;1063495;55;20165;-84
2020/12/28 00:22:13;;;;;;;;;;;;;;;-0.99;100.00;89843.13;1063540;55;20217;-82
2020/12/28 00:23:14;;;;;;;;;;;;;;;-0.97;100.00;89848.66;1063548;55;20579;-83
2020/12/28 00:24:16;;;;;;;;;;;;;;;-1.02;100.00;89844.69;1063615;55;20185;-83
2020/12/28 00:25:20;;;;;;;;;;;;;;;-1.00;100.00;89846.91;1063507;55;20578;-81
2020/12/28 00:26:21;;;;;;;;;;;;;;;-1.06;100.00;89841.47;1063685;55;20611;-83
2020/12/28 00:27:24;;;;;;;;;;;;;;;-1.03;100.00;89838.72;1061360;56;20166;-84
2020/12/28 00:28:25;;;;;;;;;;;;;;;-1.05;100.00;89843.69;1063616;55;20729;-82
2020/12/28 00:29:25;;;;;;;;;;;;;;;-0.92;100.00;89841.03;1063592;55;20174;-84
2020/12/28 00:30:25;;;;;;;;;;;;;;;-0.86;100.00;89843.84;1059345;56;20596;-83
2020/12/28 00:31:26;;;;;;;;;;;;;;;-0.83;100.00;89845.62;1063474;55;20188;-84
2020/12/28 00:32:26;;;;;;;;;;;;;;;-0.79;100.00;89839.09;1063502;55;20165;-82
2020/12/28 00:33:27;;;;;;;;;;;;;;;-0.81;100.00;89830.91;1063590;55;20185;-83
2020/12/28 00:34:27;;;;;;;;;;;;;;;-0.89;100.00;89828.94;1068230;55;20152;-82
2020/12/28 00:35:29;;;;;;;;;;;;;;;-0.85;100.00;89829.56;1063466;55;20181;-84
2020/12/28 00:36:30;;;;;;;;;;;;;;;-0.82;100.00;89832.06;1063427;55;20185;-83
2020/12/28 00:37:32;;;;;;;;;;;;;;;-0.92;100.00;89832.41;1063412;55;20185;-83
2020/12/28 00:38:34;;;;;;;;;;;;;;;-0.91;100.00;89826.75;1065723;55;20170;-82
2020/12/28 00:39:35;;;;;;;;;;;;;;;-0.92;100.00;89824.53;1068159;55;20157;-82
2020/12/28 00:40:36;;;;;;;;;;;;;;;-0.94;100.00;89821.62;1063451;55;20254;-82
2020/12/28 00:41:38;;;;;;;;;;;;;;;-0.98;100.00;89824.34;1063651;55;20245;-82
2020/12/28 00:42:38;;;;;;;;;;;;;;;-0.95;100.00;89822.78;1063424;55;20149;-83
2020/12/28 00:43:43;;;;;;;;;;;;;;;-0.84;100.00;89820.53;1063534;55;20184;-82
2020/12/28 00:44:43;;;;;;;;;;;;;;;-0.82;100.00;89815.59;1068012;55;20149;-82
2020/12/28 00:45:44;;;;;;;;;;;;;;;-0.90;100.00;89822.97;1065569;55;20743;-82
2020/12/28 00:46:44;;;;;;;;;;;;;;;-0.89;100.00;89813.22;1060848;56;20162;-83
2020/12/28 00:47:45;;;;;;;;;;;;;;;-0.86;100.00;89817.63;1063353;55;20181;-85
2020/12/28 00:48:45;;;;;;;;;;;;;;;-0.85;100.00;89822.41;1065707;55;20166;-82
2020/12/28 00:49:46;;;;;;;;;;;;;;;-0.90;100.00;89817.72;1065506;55;20153;-86
2020/12/28 00:50:46;;;;;;;;;;;;;;;-0.93;100.00;89817.84;1061327;56;20165;-83
2020/12/28 00:51:47;;;;;;;;;;;;;;;-0.91;100.00;89824.13;1063511;55;20193;-82
2020/12/28 00:52:50;;;;;;;;;;;;;;;-0.94;100.00;89824.97;1063422;55;20177;-83
2020/12/28 00:53:50;;;;;;;;;;;;;;;-0.91;100.00;89815.53;1063589;55;20158;-83
2020/12/28 00:54:52;;;;;;;;;;;;;;;-0.95;100.00;89826.13;1065749;55;20161;-85
2020/12/28 00:55:52;;;;;;;;;;;;;;;-0.93;100.00;89823.81;1061203;56;20239;-83
2020/12/28 00:56:52;;;;;;;;;;;;;;;-0.90;100.00;89819.63;1061285;56;20151;-82
2020/12/28 00:57:53;;;;;;;;;;;;;;;-0.86;100.00;89822.84;1061232;56;20154;-83
2020/12/28 00:58:53;;;;;;;;;;;;;;;-0.89;100.00;89816.56;1061316;56;20150;-84
2020/12/28 00:59:55;;;;;;;;;;;;;;;-0.89;100.00;89821.06;1061314;56;20639;-82
2020/12/28 01:00:56;;;;;;;;;;;;;;;-0.89;100.00;89816.56;1063229;55;20702;-83
2020/12/28 01:01:57;;;;;;;;;;;;;;;-0.90;100.00;89822.25;1061332;56;20181;-83
2020/12/28 01:02:57;;;;;;;;;;;;;;;-0.92;100.00;89830.53;1061347;55;20185;-82
2020/12/28 01:03:58;;;;;;;;;;;;;;;-0.87;100.00;89826.63;1063363;55;20251;-83
2020/12/28 01:04:58;;;;;;;;;;;;;;;-0.85;100.00;89824.31;1061305;56;20162;-85
2020/12/28 01:05:59;;;;;;;;;;;;;;;-0.86;100.00;89820.22;1061326;56;20251;-82
2020/12/28 01:06:59;;;;;;;;;;;;;;;-0.83;100.00;89817.50;1061338;56;20709;-83
2020/12/28 01:07:59;;;;;;;;;;;;;;;-0.83;100.00;89822.00;1061551;56;20162;-83
2020/12/28 01:09:03;;;;;;;;;;;;;;;-0.83;100.00;89817.50;1063277;55;20165;-82
2020/12/28 01:10:04;;;;;;;;;;;;;;;-0.85;100.00;89821.69;1063543;55;20185;-83
2020/12/28 01:11:04;;;;;;;;;;;;;;;-0.88;100.00;89806.81;1061251;56;20151;-82
2020/12/28 01:12:05;;;;;;;;;;;;;;;-0.85;100.00;89819.81;1063435;55;20181;-82
2020/12/28 01:13:07;;;;;;;;;;;;;;;-0.82;100.00;89811.09;1061353;56;20193;-81
2020/12/28 01:14:09;;;;;;;;;;;;;;;-0.74;100.00;89808.25;1063376;55;20184;-83
2020/12/28 01:15:10;;;;;;;;;;;;;;;-0.72;100.00;89811.16;1063512;55;20161;-83
2020/12/28 01:16:11;;;;;;;;;;;;;;;-0.75;100.00;89812.72;1065507;55;20689;-83
2020/12/28 01:17:11;;;;;;;;;;;;;;;-0.77;100.00;89815.78;1061367;56;20161;-84
2020/12/28 01:18:12;;;;;;;;;;;;;;;-0.70;100.00;89808.81;1063597;55;20158;-83
2020/12/28 01:19:12;;;;;;;;;;;;;;;-0.72;100.00;89805.91;1063352;55;21064;-82
2020/12/28 01:20:14;;;;;;;;;;;;;;;-0.73;100.00;89804.47;1059003;56;20166;-85
2020/12/28 01:21:21;;;;;;;;;;;;;;;-0.80;100.00;89810.66;1063392;55;21122;-82
2020/12/28 01:22:21;;;;;;;;;;;;;;;-0.79;100.00;89818.13;1065596;55;20183;-83
2020/12/28 01:23:21;;;;;;;;;;;;;;;-0.71;100.00;89823.84;1063440;55;20173;-83
2020/12/28 01:24:22;;;;;;;;;;;;;;;-0.79;100.00;89825.97;1063405;55;20176;-82
2020/12/28 01:25:23;;;;;;;;;;;;;;;-0.73;100.00;89826.16;1063346;55;20252;-82
2020/12/28 01:26:23;;;;;;;;;;;;;;;-0.74;100.00;89822.09;1065381;55;20165;-82
2020/12/28 01:27:24;;;;;;;;;;;;;;;-0.74;100.00;89806.34;1065371;55;20666;-83
2020/12/28 01:28:24;;;;;;;;;;;;;;;-0.80;100.00;89813.28;1063132;55;20177;-83
2020/12/28 01:29:25;;;;;;;;;;;;;;;-0.75;100.00;89807.50;1061355;56;21139;-83
2020/12/28 01:30:25;;;;;;;;;;;;;;;-0.74;100.00;89808.97;1063531;55;20201;-86
2020/12/28 01:31:26;;;;;;;;;;;;;;;-0.69;100.00;89802.44;1065716;55;20203;-81
2020/12/28 01:32:26;;;;;;;;;;;;;;;-0.72;100.00;89798.78;1061358;56;20150;-83
2020/12/28 01:33:27;;;;;;;;;;;;;;;-0.75;100.00;89797.00;1063545;55;20177;-82
2020/12/28 01:34:27;;;;;;;;;;;;;;;-0.78;100.00;89792.63;1063433;55;20169;-83
2020/12/28 01:35:28;;;;;;;;;;;;;;;-0.76;100.00;89787.69;1061291;56;20174;-83
2020/12/28 01:36:28;;;;;;;;;;;;;;;-0.77;100.00;89776.47;1065697;55;20207;-82
2020/12/28 01:37:29;;;;;;;;;;;;;;;-0.69;100.00;89784.81;1065570;55;20626;-83
2020/12/28 01:38:29;;;;;;;;;;;;;;;-0.70;100.00;89782.59;1063464;55;20662;-82
2020/12/28 01:39:30;;;;;;;;;;;;;;;-0.66;100.00;89783.22;1063365;55;20669;-83
2020/12/28 01:40:31;;;;;;;;;;;;;;;-0.64;100.00;89780.91;1063344;55;20169;-84
2020/12/28 01:41:31;;;;;;;;;;;;;;;-0.67;100.00;89777.25;1065629;55;20185;-82
2020/12/28 01:42:32;;;;;;;;;;;;;;;-0.64;100.00;89784.25;1065501;55;20191;-83
2020/12/28 01:43:32;;;;;;;;;;;;;;;-0.61;100.00;89780.81;1061354;56;20157;-84
2020/12/28 01:44:33;;;;;;;;;;;;;;;-0.61;100.00;89780.81;1059064;56;20159;-82
2020/12/28 01:45:33;;;;;;;;;;;;;;;-0.67;100.00;89787.00;1063266;55;20291;-82
2020/12/28 01:46:34;;;;;;;;;;;;;;;-0.63;100.00;89787.63;1062660;55;20181;-82
2020/12/28 01:47:34;;;;;;;;;;;;;;;-0.67;100.00;89787.00;1061261;56;20158;-83
2020/12/28 01:48:35;;;;;;;;;;;;;;;-0.61;100.00;89801.06;1063417;55;20170;-84
2020/12/28 01:49:35;;;;;;;;;;;;;;;-0.69;100.00;89800.56;1067835;55;20181;-82
2020/12/28 01:50:36;;;;;;;;;;;;;;;-0.60;100.00;89794.63;1063454;55;20169;-83
2020/12/28 01:51:36;;;;;;;;;;;;;;;-0.62;100.00;89797.66;1063477;55;20189;-83
2020/12/28 01:52:37;;;;;;;;;;;;;;;-0.63;100.00;89796.22;1065590;55;20172;-81
2020/12/28 01:53:38;;;;;;;;;;;;;;;-0.57;100.00;89796.38;1063488;55;21170;-83
2020/12/28 01:54:40;;;;;;;;;;;;;;;-0.62;100.00;89795.03;1061262;56;20711;-82
2020/12/28 01:55:42;;;;;;;;;;;;;;;-0.50;100.00;89793.53;1059290;56;20146;-85
2020/12/28 01:56:46;;;;;;;;;;;;;;;-0.59;100.00;89785.59;1059236;56;20170;-85
2020/12/28 01:57:47;;;;;;;;;;;;;;;-0.63;100.00;89798.09;1061602;55;20166;-82
2020/12/28 01:58:47;;;;;;;;;;;;;;;-0.57;100.00;89788.53;1061212;56;20295;-84
2020/12/28 01:59:48;;;;;;;;;;;;;;;-0.57;100.00;89791.91;1061418;56;20183;-84
2020/12/28 02:00:50;;;;;;;;;;;;;;;-0.58;100.00;89779.94;1063428;55;20236;-84
2020/12/28 02:01:51;;;;;;;;;;;;;;;-0.56;100.00;89776.91;1061273;56;20181;-81
2020/12/28 02:02:52;;;;;;;;;;;;;;;-0.59;100.00;89780.34;1061223;56;20158;-83
2020/12/28 02:03:54;;;;;;;;;;;;;;;-0.52;100.00;89782.75;1063399;55;20736;-81
2020/12/28 02:04:55;;;;;;;;;;;;;;;-0.47;100.00;89776.22;1065518;55;20250;-83
2020/12/28 02:05:55;;;;;;;;;;;;;;;-0.52;100.00;89767.75;1061298;56;20669;-82
2020/12/28 02:06:56;;;;;;;;;;;;;;;-0.49;100.00;89773.28;1063522;55;20173;-82
2020/12/28 02:07:58;;;;;;;;;;;;;;;-0.42;100.00;89775.66;1063394;55;20147;-83
2020/12/28 02:08:58;;;;;;;;;;;;;;;-0.56;100.00;89775.00;1061349;55;20260;-82
2020/12/28 02:10:04;;;;;;;;;;;;;;;-0.60;100.00;89769.16;1063360;55;20170;-81
2020/12/28 02:11:08;;;;;;;;;;;;;;;-0.58;100.00;89764.19;1063816;55;20154;-82
2020/12/28 02:12:08;;;;;;;;;;;;;;;-0.60;100.00;89758.66;1063464;55;20165;-83
2020/12/28 02:13:09;;;;;;;;;;;;;;;-0.60;100.00;89753.41;1061271;56;20178;-82
2020/12/28 02:14:11;;;;;;;;;;;;;;;-0.64;100.00;89754.69;1063570;55;20242;-82
2020/12/28 02:15:12;;;;;;;;;;;;;;;-0.60;100.00;89756.03;1063420;55;20158;-82
2020/12/28 02:16:14;;;;;;;;;;;;;;;-0.57;100.00;89754.44;1063465;55;21196;-83
2020/12/28 02:17:14;;;;;;;;;;;;;;;-0.54;100.00;89748.34;1065474;55;20154;-83
2020/12/28 02:18:16;;;;;;;;;;;;;;;-0.54;100.00;89750.94;1061197;56;20206;-82
2020/12/28 02:19:16;;;;;;;;;;;;;;;-0.61;100.00;89744.09;1063578;55;20173;-84
2020/12/28 02:20:17;;;;;;;;;;;;;;;-0.51;100.00;89735.09;1063459;55;20161;-82
2020/12/28 02:21:17;;;;;;;;;;;;;;;-0.53;100.00;89741.91;1061345;56;20177;-82
2020/12/28 02:22:18;;;;;;;;;;;;;;;-0.57;100.00;89743.94;1061297;56;20169;-82
2020/12/28 02:23:18;;;;;;;;;;;;;;;-0.62;100.00;89737.34;1063390;55;20162;-83
2020/12/28 02:24:19;;;;;;;;;;;;;;;-0.60;100.00;89736.94;1063426;55;20189;-84
2020/12/28 02:25:20;;;;;;;;;;;;;;;-0.57;100.00;89738.69;1063302;55;20149;-81
2020/12/28 02:26:20;;;;;;;;;;;;;;;-0.62;100.00;89728.75;1063457;55;20161;-83
2020/12/28 02:27:21;;;;;;;;;;;;;;;-0.57;100.00;89730.81;1063286;55;20240;-82
2020/12/28 02:28:21;;;;;;;;;;;;;;;-0.61;100.00;89735.47;1061314;56;20583;-83
2020/12/28 02:29:22;;;;;;;;;;;;;;;-0.62;100.00;89734.00;1061296;56;20185;-82
2020/12/28 02:30:22;;;;;;;;;;;;;;;-0.53;100.00;89729.56;1061340;56;20186;-83
2020/12/28 02:31:22;;;;;;;;;;;;;;;-0.53;100.00;89731.44;1063369;55;20184;-83
2020/12/28 02:32:23;;;;;;;;;;;;;;;-0.60;100.00;89732.44;1063298;55;20157;-83
2020/12/28 02:33:23;;;;;;;;;;;;;;;-0.60;100.00;89735.03;1063428;55;20158;-84
2020/12/28 02:34:24;;;;;;;;;;;;;;;-0.61;100.00;89730.25;1063408;55;20239;-82
2020/12/28 02:35:24;;;;;;;;;;;;;;;-0.60;100.00;89729.81;1063367;55;20428;-83
2020/12/28 02:36:25;;;;;;;;;;;;;;;-0.59;100.00;89730.53;1065476;55;20193;-83
2020/12/28 02:37:25;;;;;;;;;;;;;;;-0.66;100.00;89728.91;1068027;55;20176;-82
2020/12/28 02:38:26;;;;;;;;;;;;;;;-0.56;100.00;89732.31;1063017;55;20172;-81
2020/12/28 02:39:26;;;;;;;;;;;;;;;-0.48;100.00;89722.28;1063362;55;21076;-82
2020/12/28 02:40:26;;;;;;;;;;;;;;;-0.54;100.00;89714.22;1063474;55;20166;-83
2020/12/28 02:41:27;;;;;;;;;;;;;;;-0.59;100.00;89705.03;1063265;55;20634;-82
2020/12/28 02:42:27;;;;;;;;;;;;;;;-0.58;100.00;89708.38;1061172;56;20170;-84
2020/12/28 02:43:29;;;;;;;;;;;;;;;-0.59;100.00;89699.78;1063426;55;20157;-83
2020/12/28 02:44:29;;;;;;;;;;;;;;;-0.57;100.00;89696.72;1063374;55;20141;-83
2020/12/28 02:45:30;;;;;;;;;;;;;;;-0.57;100.00;89702.72;1061162;56;20575;-82
2020/12/28 02:46:30;;;;;;;;;;;;;;;-0.54;100.00;89699.22;1063093;55;21189;-82
2020/12/28 02:47:31;;;;;;;;;;;;;;;-0.57;100.00;89705.34;1063463;55;20154;-82
2020/12/28 02:48:31;;;;;;;;;;;;;;;-0.62;100.00;89703.25;1063387;55;20158;-84
2020/12/28 02:49:32;;;;;;;;;;;;;;;-0.51;100.00;89702.88;1063325;55;20184;-83
2020/12/28 02:50:33;;;;;;;;;;;;;;;-0.47;100.00;89710.63;1063219;55;20587;-85
2020/12/28 02:51:34;;;;;;;;;;;;;;;-0.53;100.00;89707.81;1061311;56;20178;-84
2020/12/28 02:52:34;;;;;;;;;;;;;;;-0.48;100.00;89711.78;1063363;55;20298;-84
2020/12/28 02:53:34;;;;;;;;;;;;;;;-0.48;100.00;89715.16;1063298;55;20178;-85
2020/12/28 02:54:35;;;;;;;;;;;;;;;-0.43;100.00;89713.88;1063409;55;20162;-83
2020/12/28 02:55:36;;;;;;;;;;;;;;;-0.49;100.00;89705.06;1063442;55;20196;-81
2020/12/28 02:56:37;;;;;;;;;;;;;;;-0.47;100.00;89700.88;1061219;56;20146;-82
2020/12/28 02:57:37;;;;;;;;;;;;;;;-0.57;100.00;89691.47;1061307;56;20163;-82
2020/12/28 02:58:38;;;;;;;;;;;;;;;-0.52;100.00;89696.91;1065405;55;20161;-83
2020/12/28 02:59:38;;;;;;;;;;;;;;;-0.57;100.00;89694.09;1065379;55;20259;-82
2020/12/28 03:00:39;;;;;;;;;;;;;;;-0.56;100.00;89695.59;1061235;56;20280;-82
2020/12/28 03:01:39;;;;;;;;;;;;;;;-0.51;100.00;89690.50;1061235;56;20153;-81
2020/12/28 03:02:40;;;;;;;;;;;;;;;-0.56;100.00;89691.06;1063390;55;20157;-82
2020/12/28 03:03:40;;;;;;;;;;;;;;;-0.58;100.00;89690.03;1065531;55;20570;-84
2020/12/28 03:04:41;;;;;;;;;;;;;;;-0.57;100.00;89692.22;1065527;55;20149;-82
2020/12/28 03:05:41;;;;;;;;;;;;;;;-0.53;100.00;89698.09;1061013;56;20615;-83
2020/12/28 03:06:42;;;;;;;;;;;;;;;-0.51;100.00;89698.38;1061287;56;20247;-83
2020/12/28 03:07:42;;;;;;;;;;;;;;;-0.51;100.00;89705.50;1065451;55;20298;-82
2020/12/28 03:08:43;;;;;;;;;;;;;;;-0.56;100.00;89706.06;1067580;55;20690;-84
2020/12/28 03:09:43;;;;;;;;;;;;;;;-0.59;100.00;89701.69;1063253;55;20643;-80
2020/12/28 03:10:44;;;;;;;;;;;;;;;-0.52;100.00;89704.06;1063387;55;20215;-84
2020/12/28 03:11:45;;;;;;;;;;;;;;;-0.54;100.00;89690.63;1065417;55;20168;-84
2020/12/28 03:12:47;;;;;;;;;;;;;;;-0.56;100.00;89695.59;1063474;55;20668;-84
2020/12/28 03:13:50;;;;;;;;;;;;;;;-0.54;100.00;89695.87;1061507;56;20255;-85
2020/12/28 03:14:50;;;;;;;;;;;;;;;-0.54;100.00;89696.59;1061301;56;20256;-81
2020/12/28 03:15:50;;;;;;;;;;;;;;;-0.55;100.00;89694.41;1061257;56;20227;-82
2020/12/28 03:16:51;;;;;;;;;;;;;;;-0.58;100.00;89693.38;1063434;56;20173;-82
2020/12/28 03:17:51;;;;;;;;;;;;;;;-0.57;100.00;89696.72;1068062;55;20191;-81
2020/12/28 03:18:52;;;;;;;;;;;;;;;-0.59;100.00;89685.94;1063282;56;20150;-82
2020/12/28 03:19:52;;;;;;;;;;;;;;;-0.58;100.00;89685.50;1061241;56;20197;-82
2020/12/28 03:20:53;;;;;;;;;;;;;;;-0.52;100.00;89677.81;1063456;56;20162;-85
2020/12/28 03:21:53;;;;;;;;;;;;;;;-0.56;100.00;89677.94;1065432;55;20166;-83
2020/12/28 03:22:54;;;;;;;;;;;;;;;-0.48;100.00;89678.44;1063398;56;20254;-82
2020/12/28 03:23:54;;;;;;;;;;;;;;;-0.55;100.00;89676.78;1063292;56;20635;-83
2020/12/28 03:24:55;;;;;;;;;;;;;;;-0.57;100.00;89686.22;1065513;55;20181;-85
2020/12/28 03:25:55;;;;;;;;;;;;;;;-0.56;100.00;89691.06;1063433;56;20254;-84
2020/12/28 03:27:02;;;;;;;;;;;;;;;-0.55;100.00;89694.41;1061272;56;20224;-81
2020/12/28 03:28:02;;;;;;;;;;;;;;;-0.52;100.00;89688.31;1065723;55;20157;-83
2020/12/28 03:29:03;;;;;;;;;;;;;;;-0.54;100.00;89685.38;1065481;55;20164;-83
2020/12/28 03:30:03;;;;;;;;;;;;;;;-0.56;100.00;89693.69;1065484;55;20224;-82
2020/12/28 03:31:04;;;;;;;;;;;;;;;-0.54;100.00;89688.00;1063177;56;20153;-85
2020/12/28 03:32:04;;;;;;;;;;;;;;;-0.55;100.00;89689.91;1061238;56;20189;-82
2020/12/28 03:33:04;;;;;;;;;;;;;;;-0.55;100.00;89691.78;1065529;55;20309;-82
2020/12/28 03:34:06;;;;;;;;;;;;;;;-0.53;100.00;89689.47;1063483;56;21276;-83
2020/12/28 03:35:08;;;;;;;;;;;;;;;-0.54;100.00;89685.38;1059221;56;20170;-83
2020/12/28 03:36:08;;;;;;;;;;;;;;;-0.44;100.00;89686.16;1059029;56;20166;-85
2020/12/28 03:37:09;;;;;;;;;;;;;;;-0.47;100.00;89666.78;1061170;56;20162;-82
2020/12/28 03:38:09;;;;;;;;;;;;;;;-0.54;100.00;89661.78;1063282;56;20162;-82
2020/12/28 03:39:10;;;;;;;;;;;;;;;-0.61;100.00;89667.28;1063364;56;20197;-82
2020/12/28 03:40:11;;;;;;;;;;;;;;;-0.61;100.00;89672.53;1063490;56;20639;-83
2020/12/28 03:41:12;;;;;;;;;;;;;;;-0.56;100.00;89669.34;1065529;55;20552;-83
2020/12/28 03:42:13;;;;;;;;;;;;;;;-0.60;100.00;89653.03;1063266;56;20267;-82
2020/12/28 03:43:13;;;;;;;;;;;;;;;-0.57;100.00;89652.88;1063285;56;20185;-81
2020/12/28 03:44:14;;;;;;;;;;;;;;;-0.50;100.00;89649.25;1065612;55;20149;-85
2020/12/28 03:45:14;;;;;;;;;;;;;;;-0.53;100.00;89648.25;1063249;56;20158;-82
2020/12/28 03:46:15;;;;;;;;;;;;;;;-0.58;100.00;89643.53;1063365;56;20658;-82
2020/12/28 03:47:17;;;;;;;;;;;;;;;-0.57;100.00;89644.28;1062892;55;20221;-83
2020/12/28 03:48:17;;;;;;;;;;;;;;;-0.59;100.00;89641.34;1065609;55;20181;-84
2020/12/28 03:49:18;;;;;;;;;;;;;;;-0.61;100.00;89644.44;1065592;55;20157;-84
2020/12/28 03:50:20;;;;;;;;;;;;;;;-0.60;100.00;89643.25;1068249;55;20176;-81
2020/12/28 03:51:20;;;;;;;;;;;;;;;-0.63;100.00;89644.09;1063730;55;20587;-84
2020/12/28 03:52:21;;;;;;;;;;;;;;;-0.60;100.00;89640.63;1061541;56;20188;-81
2020/12/28 03:53:21;;;;;;;;;;;;;;;-0.63;100.00;89648.63;1065989;55;20165;-81
2020/12/28 03:54:22;;;;;;;;;;;;;;;-0.58;100.00;89637.56;1068447;55;20261;-83
2020/12/28 03:55:22;;;;;;;;;;;;;;;-0.56;100.00;89638.62;1065833;55;20180;-82
2020/12/28 03:56:23;;;;;;;;;;;;;;;-0.54;100.00;89646.78;1061603;56;20627;-81
2020/12/28 03:57:23;;;;;;;;;;;;;;;-0.47;100.00;89642.44;1063799;55;20691;-81
2020/12/28 03:58:23;;;;;;;;;;;;;;;-0.56;100.00;89645.75;1067918;55;20184;-84
2020/12/28 03:59:24;;;;;;;;;;;;;;;-0.58;100.00;89648.06;1065688;55;20203;-81
2020/12/28 04:00:24;;;;;;;;;;;;;;;-0.40;100.00;89647.41;1065740;55;20388;-81
2020/12/28 04:01:25;;;;;;;;;;;;;;;-0.56;100.00;89643.13;1063723;55;20181;-83
2020/12/28 04:02:25;;;;;;;;;;;;;;;-0.53;100.00;89645.63;1063800;55;20186;-82
2020/12/28 04:03:26;;;;;;;;;;;;;;;-0.57;100.00;89644.28;1063679;55;20177;-81
2020/12/28 04:04:26;;;;;;;;;;;;;;;-0.54;100.00;89641.53;1063911;55;20201;-82
2020/12/28 04:05:27;;;;;;;;;;;;;;;-0.56;100.00;89646.47;1063610;55;20180;-83
2020/12/28 04:06:27;;;;;;;;;;;;;;;-0.61;100.00;89635.81;1061611;56;20568;-82
2020/12/28 04:07:28;;;;;;;;;;;;;;;-0.58;100.00;89643.53;1061511;56;20579;-83
2020/12/28 04:08:28;;;;;;;;;;;;;;;-0.57;100.00;89639.03;1063652;55;20189;-82
2020/12/28 04:09:29;;;;;;;;;;;;;;;-0.55;100.00;89647.22;1063814;55;20173;-81
2020/12/28 04:10:30;;;;;;;;;;;;;;;-0.57;100.00;89647.66;1061604;56;20177;-82
2020/12/28 04:11:30;;;;;;;;;;;;;;;-0.51;100.00;89650.44;1061544;56;20189;-82
2020/12/28 04:12:31;;;;;;;;;;;;;;;-0.56;100.00;89651.00;1061341;56;20316;-82
2020/12/28 04:13:31;;;;;;;;;;;;;;;-0.61;100.00;89644.44;1063678;55;20181;-83
2020/12/28 04:14:32;;;;;;;;;;;;;;;-0.59;100.00;89643.97;1067907;55;20157;-81
2020/12/28 04:15:32;;;;;;;;;;;;;;;-0.49;100.00;89648.09;1065742;55;20626;-82
2020/12/28 04:16:33;;;;;;;;;;;;;;;-0.54;100.00;89651.28;1061470;56;20247;-82
2020/12/28 04:17:33;;;;;;;;;;;;;;;-0.60;100.00;89647.78;1061374;56;20155;-82
2020/12/28 04:18:33;;;;;;;;;;;;;;;-0.62;100.00;89655.31;1065787;55;20289;-84
2020/12/28 04:19:34;;;;;;;;;;;;;;;-0.56;100.00;89645.75;1063522;55;20165;-81
2020/12/28 04:20:36;;;;;;;;;;;;;;;-0.57;100.00;89655.50;1061505;55;20178;-83
2020/12/28 04:21:36;;;;;;;;;;;;;;;-0.59;100.00;89654.47;1065784;55;20158;-83
2020/12/28 04:22:37;;;;;;;;;;;;;;;-0.61;100.00;89654.91;1063634;55;20661;-83
2020/12/28 04:23:37;;;;;;;;;;;;;;;-0.63;100.00;89664.38;1061580;56;20158;-82
2020/12/28 04:24:37;;;;;;;;;;;;;;;-0.62;100.00;89665.81;1061386;56;20650;-84
2020/12/28 04:25:38;;;;;;;;;;;;;;;-0.53;100.00;89663.22;1061350;56;20720;-83
2020/12/28 04:26:38;;;;;;;;;;;;;;;-0.54;100.00;89657.25;1063552;55;20260;-83
2020/12/28 04:27:39;;;;;;;;;;;;;;;-0.58;100.00;89656.66;1065790;55;20192;-83
2020/12/28 04:28:39;;;;;;;;;;;;;;;-0.54;100.00;89657.25;1063572;55;20170;-84
2020/12/28 04:29:40;;;;;;;;;;;;;;;-0.51;100.00;89656.41;1061461;56;20185;-82
2020/12/28 04:30:40;;;;;;;;;;;;;;;-0.39;100.00;89654.84;1063609;55;20170;-83
2020/12/28 04:31:41;;;;;;;;;;;;;;;-0.39;100.00;89654.12;1065811;55;20157;-82
2020/12/28 04:32:41;;;;;;;;;;;;;;;-0.48;100.00;89648.81;1063582;55;20150;-82
2020/12/28 04:33:42;;;;;;;;;;;;;;;-0.51;100.00;89653.78;1061520;56;20161;-81
2020/12/28 04:34:42;;;;;;;;;;;;;;;-0.55;100.00;89647.94;1061283;56;20220;-83
2020/12/28 04:35:43;;;;;;;;;;;;;;;-0.56;100.00;89645.75;1063615;55;20166;-83
2020/12/28 04:36:43;;;;;;;;;;;;;;;-0.52;100.00;89648.97;1063596;55;20154;-82
2020/12/28 04:37:44;;;;;;;;;;;;;;;-0.49;100.00;89648.09;1063709;55;20568;-82
2020/12/28 04:38:45;;;;;;;;;;;;;;;-0.42;100.00;89652.34;1065801;55;20348;-82
2020/12/28 04:39:45;;;;;;;;;;;;;;;-0.40;100.00;89650.75;1063654;55;20154;-86
2020/12/28 04:40:45;;;;;;;;;;;;;;;-0.42;100.00;89649.72;1061620;56;20224;-82
2020/12/28 04:41:46;;;;;;;;;;;;;;;-0.47;100.00;89650.31;1059500;56;20163;-81
2020/12/28 04:42:46;;;;;;;;;;;;;;;-0.46;100.00;89644.63;1061519;56;20343;-84
2020/12/28 04:43:47;;;;;;;;;;;;;;;-0.51;100.00;89640.66;1061595;56;20173;-83
2020/12/28 04:44:47;;;;;;;;;;;;;;;-0.47;100.00;89640.53;1063823;55;20654;-84
2020/12/28 04:45:48;;;;;;;;;;;;;;;-0.55;100.00;89631.47;1065716;55;20258;-82
2020/12/28 04:46:48;;;;;;;;;;;;;;;-0.39;100.00;89630.50;1063533;55;20689;-83
2020/12/28 04:47:51;;;;;;;;;;;;;;;-0.36;100.00;89630.34;1061408;56;20666;-82
2020/12/28 04:48:51;;;;;;;;;;;;;;;-0.43;100.00;89624.66;1065897;55;20191;-81
2020/12/28 04:49:52;;;;;;;;;;;;;;;-0.48;100.00;89622.59;1063535;55;20181;-82
2020/12/28 04:50:53;;;;;;;;;;;;;;;-0.51;100.00;89622.31;1063667;55;20162;-81
2020/12/28 04:51:54;;;;;;;;;;;;;;;-0.51;100.00;89618.97;1061411;56;20248;-83
2020/12/28 04:52:54;;;;;;;;;;;;;;;-0.49;100.00;89619.25;1061445;55;20185;-82
2020/12/28 04:53:57;;;;;;;;;;;;;;;-0.45;100.00;89613.88;1063519;55;20209;-83
2020/12/28 04:54:58;;;;;;;;;;;;;;;-0.41;100.00;89614.47;1063646;55;20153;-82
2020/12/28 04:55:59;;;;;;;;;;;;;;;-0.46;100.00;89609.78;1063736;55;20165;-82
2020/12/28 04:56:59;;;;;;;;;;;;;;;-0.41;100.00;89606.59;1061394;56;20166;-86
2020/12/28 04:58:01;;;;;;;;;;;;;;;-0.39;100.00;89609.53;1061414;55;20166;-84
2020/12/28 04:59:02;;;;;;;;;;;;;;;-0.44;100.00;89604.81;1063711;55;20161;-82
2020/12/28 05:00:04;;;;;;;;;;;;;;;-0.49;100.00;89613.25;1063411;55;20162;-81
2020/12/28 05:01:04;;;;;;;;;;;;;;;-0.54;100.00;89604.06;1061435;55;20162;-82
2020/12/28 05:02:06;;;;;;;;;;;;;;;-0.55;100.00;89602.63;1065610;55;20614;-82
2020/12/28 05:03:07;;;;;;;;;;;;;;;-0.51;100.00;89595.34;1065768;55;21117;-85
2020/12/28 05:04:09;;;;;;;;;;;;;;;-0.52;100.00;89594.63;1063725;55;20243;-81
2020/12/28 05:05:10;;;;;;;;;;;;;;;-0.46;100.00;89594.78;1061386;56;20741;-85
2020/12/28 05:06:10;;;;;;;;;;;;;;;-0.41;100.00;89593.47;1063582;55;20283;-82
2020/12/28 05:07:11;;;;;;;;;;;;;;;-0.46;100.00;89591.44;1063395;55;20166;-82
2020/12/28 05:08:12;;;;;;;;;;;;;;;-0.53;100.00;89595.78;1061351;56;20166;-82
2020/12/28 05:09:13;;;;;;;;;;;;;;;-0.46;100.00;89591.44;1061376;56;20158;-83
2020/12/28 05:10:22;;;;;;;;;;;;;;;-0.52;100.00;89589.37;1063660;55;20291;-81
2020/12/28 05:11:26;;;;;;;;;;;;;;;-0.50;100.00;89588.94;1065742;55;20184;-84
2020/12/28 05:12:26;;;;;;;;;;;;;;;-0.50;100.00;89588.94;1061448;56;20181;-82